createdAt,value
2023-11-23T00:01:36.577Z,10.74
2023-11-23T00:04:05.350Z,10.59
2023-11-23T00:06:33.133Z,10.80
2023-11-23T00:09:00.891Z,10.70
2023-11-23T00:11:28.681Z,10.70
2023-11-23T00:13:57.113Z,10.60
2023-11-23T00:16:24.944Z,10.58
2023-11-23T00:18:52.800Z,10.71
2023-11-23T00:21:20.551Z,10.86
2023-11-23T00:23:48.357Z,10.88
2023-11-23T00:26:16.193Z,10.75
2023-11-23T00:28:43.904Z,10.83
2023-11-23T00:31:11.734Z,10.93
2023-11-23T00:33:39.684Z,10.87
2023-11-23T00:36:08.129Z,10.89
2023-11-23T00:38:35.942Z,10.79
2023-11-23T00:41:03.733Z,10.71
2023-11-23T00:43:31.587Z,10.73
2023-11-23T00:45:59.349Z,10.77
2023-11-23T00:48:28.991Z,10.69
2023-11-23T00:50:56.830Z,10.73
2023-11-23T00:53:24.596Z,10.78
2023-11-23T00:55:52.295Z,10.79
2023-11-23T00:58:20.061Z,10.89
2023-11-23T01:00:48.578Z,11.07
2023-11-23T01:03:16.451Z,11.02
2023-11-23T01:05:45.304Z,10.87
2023-11-23T01:08:13.109Z,11.05
2023-11-23T01:10:40.862Z,10.93
2023-11-23T01:13:08.661Z,10.91
2023-11-23T01:15:36.357Z,10.83
2023-11-23T01:18:04.109Z,10.85
2023-11-23T01:20:31.852Z,10.89
2023-11-23T01:22:59.525Z,10.79
2023-11-23T01:25:27.288Z,10.80
2023-11-23T01:27:56.508Z,10.85
2023-11-23T01:30:24.263Z,10.81
2023-11-23T01:32:52.096Z,10.87
2023-11-23T01:35:22.085Z,10.88
2023-11-23T01:37:50.465Z,10.96
2023-11-23T01:40:18.564Z,10.98
2023-11-23T01:42:48.822Z,10.95
2023-11-23T01:45:16.859Z,11.05
2023-11-23T01:47:47.512Z,11.00
2023-11-23T01:50:17.242Z,10.96
2023-11-23T01:52:44.932Z,10.95
2023-11-23T01:55:14.557Z,10.87
2023-11-23T01:57:42.898Z,10.92
2023-11-23T02:00:11.029Z,10.94
2023-11-23T02:02:39.080Z,10.76
2023-11-23T02:05:06.976Z,10.80
2023-11-23T02:07:34.674Z,10.95
2023-11-23T02:10:02.669Z,10.90
2023-11-23T02:12:30.564Z,11.08
2023-11-23T02:15:01.596Z,11.16
2023-11-23T02:17:31.999Z,10.98
2023-11-23T02:20:00.576Z,11.13
2023-11-23T02:22:28.376Z,11.16
2023-11-23T02:24:56.186Z,11.17
2023-11-23T02:27:24.114Z,11.04
2023-11-23T02:29:51.774Z,11.00
2023-11-23T02:32:19.489Z,11.00
2023-11-23T02:34:47.248Z,11.00
2023-11-23T02:37:14.975Z,11.02
2023-11-23T02:39:44.874Z,11.11
2023-11-23T02:42:12.887Z,11.12
2023-11-23T02:44:40.732Z,11.12
2023-11-23T02:47:08.588Z,11.16
2023-11-23T02:49:36.382Z,11.08
2023-11-23T02:52:04.291Z,11.15
2023-11-23T02:54:32.467Z,11.19
2023-11-23T02:57:00.023Z,11.24
2023-11-23T02:59:30.050Z,11.12
2023-11-23T03:01:57.866Z,11.32
2023-11-23T03:04:25.711Z,11.32
2023-11-23T03:06:53.438Z,11.27
2023-11-23T03:09:21.303Z,11.21
2023-11-23T03:11:49.053Z,11.30
2023-11-23T03:14:17.068Z,11.24
2023-11-23T03:16:45.647Z,11.28
2023-11-23T03:19:13.432Z,11.28
2023-11-23T03:21:41.236Z,11.42
2023-11-23T03:24:09.358Z,11.49
2023-11-23T03:26:37.469Z,11.46
2023-11-23T03:29:05.185Z,11.63
2023-11-23T03:31:32.930Z,11.56
2023-11-23T03:34:00.583Z,11.53
2023-11-23T03:36:28.356Z,11.51
2023-11-23T03:38:56.144Z,11.47
2023-11-23T03:41:23.912Z,11.48
2023-11-23T03:43:51.683Z,11.49
2023-11-23T03:46:19.824Z,11.43
2023-11-23T03:48:47.577Z,11.31
2023-11-23T03:51:15.728Z,11.35
2023-11-23T03:53:44.148Z,11.37
2023-11-23T03:56:18.249Z,11.55
2023-11-23T03:58:46.151Z,11.50
2023-11-23T04:01:14.628Z,11.43
2023-11-23T04:03:45.972Z,11.50
2023-11-23T04:06:14.497Z,11.57
2023-11-23T04:08:42.338Z,11.62
2023-11-23T04:11:11.099Z,11.39
2023-11-23T04:13:38.847Z,11.42
2023-11-23T04:16:06.847Z,11.46
2023-11-23T04:18:34.560Z,11.52
2023-11-23T04:21:03.565Z,11.54
2023-11-23T04:23:31.503Z,11.51
2023-11-23T04:25:59.292Z,11.41
2023-11-23T04:28:27.363Z,11.44
2023-11-23T04:30:55.113Z,11.58
2023-11-23T04:33:25.671Z,11.73
2023-11-23T04:35:54.109Z,11.61
2023-11-23T04:38:21.818Z,11.52
2023-11-23T04:40:49.544Z,11.44
2023-11-23T04:43:17.920Z,11.47
2023-11-23T04:45:45.723Z,11.51
2023-11-23T04:48:13.603Z,11.55
2023-11-23T04:50:42.709Z,11.59
2023-11-23T04:53:10.522Z,11.53
2023-11-23T04:55:40.262Z,11.65
2023-11-23T04:58:08.600Z,11.59
2023-11-23T05:00:38.344Z,11.48
2023-11-23T05:03:06.144Z,11.50
2023-11-23T05:05:33.895Z,11.50
2023-11-23T05:08:01.561Z,11.53
2023-11-23T05:10:29.210Z,11.32
2023-11-23T05:12:56.905Z,11.37
2023-11-23T05:15:24.798Z,11.35
2023-11-23T05:17:52.610Z,11.50
2023-11-23T05:20:21.578Z,11.23
2023-11-23T05:22:49.305Z,11.23
2023-11-23T05:25:18.237Z,11.40
2023-11-23T05:27:46.452Z,11.15
2023-11-23T05:30:14.424Z,11.15
2023-11-23T05:32:42.218Z,11.09
2023-11-23T05:35:10.306Z,11.01
2023-11-23T05:37:38.059Z,11.04
2023-11-23T05:40:10.319Z,11.12
2023-11-23T05:42:38.225Z,11.28
2023-11-23T05:45:07.471Z,11.42
2023-11-23T05:47:35.486Z,11.48
2023-11-23T05:50:04.489Z,11.63
2023-11-23T05:52:32.245Z,11.66
2023-11-23T05:54:59.956Z,11.77
2023-11-23T05:57:28.505Z,11.56
2023-11-23T05:59:56.343Z,11.62
2023-11-23T06:02:24.155Z,11.73
2023-11-23T06:04:52.002Z,11.44
2023-11-23T06:07:19.824Z,11.49
2023-11-23T06:09:48.062Z,11.25
2023-11-23T06:12:15.595Z,11.43
2023-11-23T06:14:43.265Z,11.62
2023-11-23T06:17:15.987Z,11.29
2023-11-23T06:19:43.793Z,11.11
2023-11-23T06:22:12.613Z,11.49
2023-11-23T06:24:41.522Z,11.54
2023-11-23T06:27:11.592Z,11.77
2023-11-23T06:29:39.481Z,11.66
2023-11-23T06:32:07.771Z,11.25
2023-11-23T06:34:38.321Z,11.15
2023-11-23T06:37:07.798Z,11.34
2023-11-23T06:39:38.369Z,11.55
2023-11-23T06:42:06.190Z,11.34
2023-11-23T06:44:33.924Z,11.50
2023-11-23T06:47:01.966Z,11.66
2023-11-23T06:49:29.622Z,11.66
2023-11-23T06:51:57.317Z,11.76
2023-11-23T06:54:25.260Z,11.69
2023-11-23T06:56:53.015Z,11.77
2023-11-23T06:59:20.718Z,11.77
2023-11-23T07:01:48.619Z,11.73
2023-11-23T07:04:16.485Z,11.53
2023-11-23T07:06:44.220Z,11.75
2023-11-23T07:09:14.622Z,11.68
2023-11-23T07:11:42.501Z,11.66
2023-11-23T07:14:10.570Z,11.65
2023-11-23T07:16:39.069Z,11.72
2023-11-23T07:19:06.743Z,11.67
2023-11-23T07:21:34.534Z,11.39
2023-11-23T07:24:02.359Z,11.62
2023-11-23T07:26:33.288Z,11.28
2023-11-23T07:29:01.046Z,11.20
2023-11-23T07:31:28.805Z,11.34
2023-11-23T07:33:56.693Z,11.32
2023-11-23T07:36:27.804Z,10.92
2023-11-23T07:38:55.757Z,10.20
2023-11-23T07:41:23.594Z,10.17
2023-11-23T07:43:52.801Z,10.18
2023-11-23T07:46:22.906Z,10.19
2023-11-23T07:48:54.085Z,10.13
2023-11-23T07:51:22.036Z,10.09
2023-11-23T07:53:49.893Z,10.12
2023-11-23T07:56:18.319Z,10.15
2023-11-23T07:58:47.549Z,10.11
2023-11-23T08:01:15.218Z,10.17
2023-11-23T08:03:43.156Z,10.21
2023-11-23T08:06:11.434Z,10.26
2023-11-23T08:08:40.338Z,10.20
2023-11-23T08:11:08.383Z,10.21
2023-11-23T08:13:36.309Z,10.28
2023-11-23T08:16:05.669Z,10.29
2023-11-23T08:18:40.439Z,10.44
2023-11-23T08:21:14.986Z,11.04
2023-11-23T08:23:43.600Z,11.44
2023-11-23T08:26:12.474Z,11.46
2023-11-23T08:28:40.362Z,11.49
2023-11-23T08:31:08.764Z,11.32
2023-11-23T08:33:36.517Z,11.36
2023-11-23T08:36:05.045Z,11.58
2023-11-23T08:38:32.843Z,11.76
2023-11-23T08:41:01.793Z,11.57
2023-11-23T08:43:29.651Z,11.82
2023-11-23T08:45:57.455Z,12.00
2023-11-23T08:48:25.286Z,12.20
2023-11-23T08:50:53.122Z,12.10
2023-11-23T08:53:20.825Z,11.98
2023-11-23T08:55:49.790Z,12.15
2023-11-23T08:58:17.504Z,11.91
2023-11-23T09:00:45.990Z,11.65
2023-11-23T09:03:15.072Z,11.81
2023-11-23T09:05:43.571Z,12.27
2023-11-23T09:08:11.375Z,12.49
2023-11-23T09:10:39.226Z,12.66
2023-11-23T09:13:07.003Z,13.07
2023-11-23T09:15:34.685Z,13.23
2023-11-23T09:18:02.409Z,13.60
2023-11-23T09:20:30.109Z,13.69
2023-11-23T09:22:57.840Z,13.78
2023-11-23T09:25:26.275Z,13.76
2023-11-23T09:27:55.258Z,13.50
2023-11-23T09:30:23.006Z,13.39
2023-11-23T09:32:51.109Z,13.48
2023-11-23T09:35:18.703Z,13.13
2023-11-23T09:37:46.974Z,13.28
2023-11-23T09:40:18.284Z,12.99
2023-11-23T09:42:48.789Z,13.24
2023-11-23T09:45:24.279Z,13.43
2023-11-23T09:47:54.109Z,13.83
2023-11-23T09:50:21.987Z,13.98
2023-11-23T09:52:50.411Z,14.07
2023-11-23T09:55:18.871Z,14.51
2023-11-23T09:57:49.502Z,14.39
2023-11-23T10:00:19.792Z,14.44
2023-11-23T10:02:57.113Z,14.62
2023-11-23T10:05:25.644Z,14.57
2023-11-23T10:07:55.457Z,14.65
2023-11-23T10:10:23.282Z,14.62
2023-11-23T10:12:51.089Z,14.80
2023-11-23T10:15:19.326Z,14.73
2023-11-23T10:17:48.768Z,14.87
2023-11-23T10:20:16.723Z,14.89
2023-11-23T10:22:49.118Z,14.98
2023-11-23T10:25:33.605Z,14.83
2023-11-23T10:28:02.322Z,14.88
2023-11-23T10:30:31.010Z,15.06
2023-11-23T10:33:00.550Z,14.97
2023-11-23T10:35:40.098Z,15.13
2023-11-23T10:38:09.183Z,15.28
2023-11-23T10:40:37.085Z,15.05
2023-11-23T10:43:06.461Z,15.15
2023-11-23T10:45:37.326Z,15.16
2023-11-23T10:48:05.768Z,15.14
2023-11-23T10:50:33.846Z,15.18
2023-11-23T10:53:03.488Z,14.99
2023-11-23T10:55:31.263Z,14.64
2023-11-23T10:58:09.464Z,14.78
2023-11-23T11:00:38.582Z,14.88
2023-11-23T11:03:10.393Z,14.71
2023-11-23T11:05:47.670Z,14.53
2023-11-23T11:08:21.592Z,14.44
2023-11-23T11:10:55.148Z,14.33
2023-11-23T11:13:25.092Z,14.12
2023-11-23T11:16:08.250Z,14.06
2023-11-23T11:18:36.960Z,13.99
2023-11-23T11:21:08.860Z,13.87
2023-11-23T11:23:45.704Z,13.98
2023-11-23T11:26:29.209Z,14.05
2023-11-23T11:29:00.054Z,13.69
2023-11-23T11:31:33.259Z,13.51
2023-11-23T11:34:02.614Z,13.49
2023-11-23T11:36:32.361Z,13.65
2023-11-23T11:39:01.671Z,13.65
2023-11-23T11:41:32.475Z,13.49
2023-11-23T11:44:00.392Z,13.65
2023-11-23T11:46:31.506Z,13.54
2023-11-23T11:49:00.047Z,13.73
2023-11-23T11:51:30.059Z,13.79
2023-11-23T11:54:00.763Z,13.63
2023-11-23T11:56:29.212Z,13.70
2023-11-23T11:58:57.741Z,13.65
2023-11-23T12:01:25.502Z,13.55
2023-11-23T12:03:53.277Z,13.28
2023-11-23T12:06:22.109Z,13.34
2023-11-23T12:08:51.087Z,13.25
2023-11-23T12:11:32.108Z,13.29
2023-11-23T12:14:01.128Z,13.50
2023-11-23T12:16:36.821Z,13.46
2023-11-23T12:19:22.378Z,13.62
2023-11-23T12:21:58.015Z,13.79
2023-11-23T12:24:31.725Z,13.73
2023-11-23T12:26:59.708Z,13.74
2023-11-23T12:29:32.400Z,13.89
2023-11-23T12:32:00.484Z,14.03
2023-11-23T12:34:28.492Z,13.99
2023-11-23T12:36:59.508Z,13.92
2023-11-23T12:39:29.640Z,13.97
2023-11-23T12:41:58.487Z,13.91
2023-11-23T12:44:26.200Z,13.87
2023-11-23T12:46:53.999Z,13.93
2023-11-23T12:49:22.052Z,14.00
2023-11-23T12:51:49.776Z,13.92
2023-11-23T12:54:17.574Z,14.03
2023-11-23T12:56:45.977Z,14.03
2023-11-23T12:59:13.761Z,13.97
2023-11-23T13:01:41.684Z,13.95
2023-11-23T13:04:10.764Z,13.78
2023-11-23T13:06:39.050Z,13.73
2023-11-23T13:09:13.237Z,13.56
2023-11-23T13:11:41.453Z,13.53
2023-11-23T13:14:09.561Z,13.38
2023-11-23T13:16:37.958Z,13.38
2023-11-23T13:19:17.000Z,13.42
2023-11-23T13:21:55.065Z,13.38
2023-11-23T13:24:22.928Z,13.38
2023-11-23T13:26:51.013Z,13.20
2023-11-23T13:29:19.821Z,13.22
2023-11-23T13:31:47.885Z,13.06
2023-11-23T13:34:16.302Z,13.07
2023-11-23T13:36:44.187Z,13.24
2023-11-23T13:39:15.898Z,13.11
2023-11-23T13:41:43.892Z,13.04
2023-11-23T13:44:12.280Z,13.05
2023-11-23T13:46:40.060Z,13.09
2023-11-23T13:49:08.997Z,13.02
2023-11-23T13:51:36.770Z,13.08
2023-11-23T13:54:08.119Z,12.99
2023-11-23T13:56:40.630Z,12.98
2023-11-23T13:59:10.388Z,12.83
2023-11-23T14:01:38.682Z,12.93
2023-11-23T14:04:07.438Z,12.94
2023-11-23T14:06:35.341Z,12.89
2023-11-23T14:09:05.273Z,12.98
2023-11-23T14:11:36.286Z,13.14
2023-11-23T14:14:06.804Z,12.86
2023-11-23T14:16:36.332Z,12.78
2023-11-23T14:19:07.266Z,13.04
2023-11-23T14:21:35.029Z,12.94
2023-11-23T14:24:02.793Z,13.09
2023-11-23T14:26:30.729Z,12.97
2023-11-23T14:28:58.428Z,12.89
2023-11-23T14:31:26.377Z,12.97
2023-11-23T14:33:56.426Z,12.92
2023-11-23T14:36:24.259Z,12.85
2023-11-23T14:38:54.285Z,12.86
2023-11-23T14:41:24.131Z,12.84
2023-11-23T14:43:52.216Z,12.72
2023-11-23T14:46:20.808Z,12.96
2023-11-23T14:48:48.624Z,12.79
2023-11-23T14:51:19.627Z,12.55
2023-11-23T14:56:17.505Z,12.89
2023-11-23T14:58:46.571Z,13.05
2023-11-23T15:01:14.479Z,12.69
2023-11-23T15:03:42.372Z,12.75
2023-11-23T15:06:10.180Z,12.78
2023-11-23T15:08:37.865Z,12.48
2023-11-23T15:11:05.663Z,12.62
2023-11-23T15:13:38.388Z,12.63
2023-11-23T15:16:07.196Z,12.64
2023-11-23T15:18:35.282Z,12.45
2023-11-23T15:21:03.127Z,12.66
2023-11-23T15:23:31.339Z,12.63
2023-11-23T15:25:58.948Z,12.77
2023-11-23T15:28:27.069Z,12.74
2023-11-23T15:30:54.899Z,12.69
2023-11-23T15:33:24.034Z,12.61
2023-11-23T15:35:52.290Z,12.59
2023-11-23T15:38:20.782Z,12.60
2023-11-23T15:40:50.249Z,12.50
2023-11-23T15:43:18.430Z,12.42
2023-11-23T15:45:46.602Z,12.68
2023-11-23T15:48:14.430Z,12.53
2023-11-23T15:50:42.241Z,12.75
2023-11-23T15:53:10.527Z,12.63
2023-11-23T15:55:39.662Z,12.57
2023-11-23T15:58:07.452Z,12.80
2023-11-23T16:00:35.295Z,12.71
2023-11-23T16:03:03.124Z,12.62
2023-11-23T16:05:30.874Z,12.72
2023-11-23T16:07:59.173Z,12.68
2023-11-23T16:10:27.718Z,12.58
2023-11-23T16:12:55.521Z,12.38
2023-11-23T16:15:23.493Z,12.58
2023-11-23T16:17:52.102Z,12.53
2023-11-23T16:20:20.452Z,12.53
2023-11-23T16:22:48.663Z,12.51
2023-11-23T16:25:17.261Z,12.58
2023-11-23T16:27:46.168Z,12.61
2023-11-23T16:30:15.400Z,12.42
2023-11-23T16:32:43.729Z,12.58
2023-11-23T16:35:14.576Z,12.74
2023-11-23T16:37:42.605Z,12.55
2023-11-23T16:40:13.492Z,12.65
2023-11-23T16:42:42.704Z,12.56
2023-11-23T16:45:11.855Z,12.68
2023-11-23T16:47:45.696Z,12.56
2023-11-23T16:50:14.254Z,12.64
2023-11-23T16:52:41.959Z,12.49
2023-11-23T16:55:10.403Z,12.70
2023-11-23T16:57:40.572Z,12.74
2023-11-23T17:00:13.216Z,12.72
2023-11-23T17:02:44.696Z,12.64
2023-11-23T17:05:15.117Z,12.88
2023-11-23T17:07:43.215Z,12.83
2023-11-23T17:10:10.819Z,12.79
2023-11-23T17:12:38.761Z,12.63
2023-11-23T17:15:08.577Z,12.60
2023-11-23T17:17:36.394Z,12.57
2023-11-23T17:20:04.464Z,12.52
2023-11-23T17:22:35.508Z,12.55
2023-11-23T17:25:03.797Z,12.47
2023-11-23T17:27:31.696Z,12.33
2023-11-23T17:30:00.324Z,12.44
2023-11-23T17:32:28.108Z,12.48
2023-11-23T17:34:55.911Z,12.52
2023-11-23T17:37:23.620Z,12.98
2023-11-23T17:39:51.314Z,12.60
2023-11-23T17:42:19.161Z,12.88
2023-11-23T17:44:46.962Z,13.03
2023-11-23T17:47:14.924Z,13.14
2023-11-23T17:49:44.112Z,13.01
2023-11-23T17:52:12.093Z,13.09
2023-11-23T17:54:39.820Z,12.92
2023-11-23T17:57:07.653Z,12.87
2023-11-23T17:59:46.842Z,12.76
2023-11-23T18:02:19.534Z,12.82
2023-11-23T18:04:53.152Z,12.92
2023-11-23T18:07:21.134Z,12.84
2023-11-23T18:09:50.612Z,12.84
2023-11-23T18:12:18.557Z,12.76
2023-11-23T18:14:46.330Z,12.78
2023-11-23T18:17:14.148Z,12.85
2023-11-23T18:19:42.392Z,13.13
2023-11-23T18:22:10.232Z,12.86
2023-11-23T18:24:38.066Z,13.11
2023-11-23T18:27:07.784Z,13.17
2023-11-23T18:29:37.462Z,13.06
2023-11-23T18:32:05.427Z,13.12
2023-11-23T18:34:35.102Z,12.97
2023-11-23T18:37:03.169Z,13.06
2023-11-23T18:39:30.808Z,12.74
2023-11-23T18:41:59.586Z,12.77
2023-11-23T18:44:27.383Z,12.76
2023-11-23T18:46:55.983Z,12.67
2023-11-23T18:49:29.261Z,12.74
2023-11-23T18:51:58.480Z,13.48
2023-11-23T18:54:26.298Z,13.70
2023-11-23T18:56:54.185Z,13.51
2023-11-23T18:59:22.663Z,13.33
2023-11-23T19:01:50.689Z,13.12
2023-11-23T19:04:19.570Z,12.94
2023-11-23T19:06:51.605Z,12.74
2023-11-23T19:09:23.095Z,12.84
2023-11-23T19:11:50.872Z,12.71
2023-11-23T19:14:18.595Z,12.62
2023-11-23T19:16:46.298Z,12.84
2023-11-23T19:19:14.160Z,12.82
2023-11-23T19:21:42.041Z,12.75
2023-11-23T19:24:10.527Z,12.80
2023-11-23T19:26:38.624Z,13.07
2023-11-23T19:29:06.442Z,13.22
2023-11-23T19:31:35.777Z,12.97
2023-11-23T19:34:04.767Z,12.69
2023-11-23T19:36:32.879Z,12.73
2023-11-23T19:39:00.975Z,12.87
2023-11-23T19:41:28.962Z,12.84
2023-11-23T19:43:56.839Z,12.69
2023-11-23T19:46:24.921Z,12.57
2023-11-23T19:48:52.997Z,12.56
2023-11-23T19:51:25.434Z,12.65
2023-11-23T19:53:56.583Z,12.71
2023-11-23T19:56:26.146Z,12.97
2023-11-23T19:58:54.294Z,13.01
2023-11-23T20:01:22.003Z,12.98
2023-11-23T20:03:49.889Z,13.14
2023-11-23T20:06:18.353Z,12.75
2023-11-23T20:08:46.272Z,13.08
2023-11-23T20:11:15.029Z,12.88
2023-11-23T20:13:43.154Z,12.82
2023-11-23T20:16:21.620Z,12.79
2023-11-23T20:18:56.154Z,12.88
2023-11-23T20:21:23.928Z,12.76
2023-11-23T20:23:51.944Z,12.62
2023-11-23T20:26:19.802Z,12.61
2023-11-23T20:28:48.273Z,12.35
2023-11-23T20:31:16.088Z,12.80
2023-11-23T20:33:43.965Z,12.84
2023-11-23T20:36:11.770Z,13.03
2023-11-23T20:38:39.544Z,12.93
2023-11-23T20:41:07.951Z,12.78
2023-11-23T20:43:35.799Z,12.97
2023-11-23T20:46:05.144Z,12.66
2023-11-23T20:48:32.959Z,12.61
2023-11-23T20:51:02.856Z,12.20
2023-11-23T20:53:30.726Z,12.51
2023-11-23T20:55:58.868Z,12.76
2023-11-23T20:58:26.814Z,12.94
2023-11-23T21:00:55.053Z,12.70
2023-11-23T21:03:24.195Z,13.01
2023-11-23T21:05:52.687Z,13.09
2023-11-23T21:08:20.817Z,13.19
2023-11-23T21:10:49.557Z,13.16
2023-11-23T21:13:17.617Z,13.25
2023-11-23T21:15:45.370Z,13.21
2023-11-23T21:18:13.455Z,13.15
2023-11-23T21:20:41.691Z,13.17
2023-11-23T21:23:09.389Z,13.08
2023-11-23T21:25:38.668Z,13.16
2023-11-23T21:28:06.429Z,13.03
2023-11-23T21:30:34.185Z,12.95
2023-11-23T21:33:02.088Z,12.77
2023-11-23T21:35:33.747Z,12.67
2023-11-23T21:38:01.728Z,12.64
2023-11-23T21:40:29.953Z,12.87
2023-11-23T21:42:57.838Z,13.00
2023-11-23T21:45:25.682Z,13.11
2023-11-23T21:47:53.556Z,13.18
2023-11-23T21:50:21.722Z,13.05
2023-11-23T21:52:50.666Z,13.15
2023-11-23T21:55:19.639Z,13.10
2023-11-23T21:57:47.353Z,12.72
2023-11-23T22:00:15.590Z,12.62
2023-11-23T22:02:45.412Z,12.31
2023-11-23T22:05:13.286Z,12.27
2023-11-23T22:07:41.174Z,12.09
2023-11-23T22:10:08.991Z,12.19
2023-11-23T22:12:37.142Z,12.09
2023-11-23T22:15:07.875Z,12.20
2023-11-23T22:17:36.547Z,12.20
2023-11-23T22:20:04.785Z,12.28
2023-11-23T22:22:32.727Z,12.50
2023-11-23T22:25:00.583Z,12.29
2023-11-23T22:27:29.442Z,12.29
2023-11-23T22:29:57.534Z,12.37
2023-11-23T22:32:27.644Z,12.31
2023-11-23T22:34:55.761Z,12.29
2023-11-23T22:37:23.590Z,12.40
2023-11-23T22:39:51.910Z,12.31
2023-11-23T22:42:19.896Z,12.05
2023-11-23T22:44:47.968Z,12.15
2023-11-23T22:47:15.661Z,11.91
2023-11-23T22:49:43.321Z,12.06
2023-11-23T22:52:11.056Z,12.21
2023-11-23T22:54:39.307Z,12.26
2023-11-23T22:57:07.052Z,12.13
2023-11-23T22:59:35.063Z,12.20
2023-11-23T23:02:03.787Z,12.12
2023-11-23T23:04:32.826Z,12.05
2023-11-23T23:07:00.706Z,12.02
2023-11-23T23:09:28.898Z,12.04
2023-11-23T23:11:57.660Z,11.76
2023-11-23T23:14:29.736Z,11.81
2023-11-23T23:16:57.932Z,11.74
2023-11-23T23:19:25.795Z,11.93
2023-11-23T23:21:53.578Z,12.01
2023-11-23T23:24:21.452Z,11.90
2023-11-23T23:26:49.628Z,11.84
2023-11-23T23:29:18.366Z,11.97
2023-11-23T23:31:46.089Z,11.65
2023-11-23T23:34:14.179Z,11.64
2023-11-23T23:36:42.622Z,11.57
2023-11-23T23:39:10.428Z,11.32
2023-11-23T23:41:38.902Z,11.40
2023-11-23T23:44:06.906Z,11.20
2023-11-23T23:46:34.991Z,11.16
2023-11-23T23:49:02.893Z,10.55
2023-11-23T23:51:33.356Z,10.80
2023-11-23T23:54:01.295Z,10.54
2023-11-23T23:56:29.029Z,10.06
2023-11-23T23:58:56.961Z,10.27
